Time;durP1;ratioP1;P1;durP2;ratioP2;P2;SDS_P1;SDS_P2;PMS_P1;PMS_P2;Temp;Humidity;BMP_temperature;BMP_pressure;BME280_temperature;BME280_humidity;BME280_pressure;Samples;Min_cycle;Max_cycle;Signal;HPM_P1;HPM_P2
2022/10/14 00:00:52;;;;;;;34.25;19.20;;;;;;;;;;4996258;28;20034;-66
2022/10/14 00:03:18;;;;;;;30.83;19.15;;;;;;;;;;4996117;28;20050;-66
2022/10/14 00:05:43;;;;;;;32.55;19.88;;;;;;;;;;4994844;28;20100;-66
2022/10/14 00:08:09;;;;;;;32.22;19.65;;;;;;;;;;4995654;28;20034;-66
2022/10/14 00:10:38;;;;;;;27.98;18.98;;;;;;;;;;4995897;28;20110;-66
2022/10/14 00:13:04;;;;;;;34.50;19.45;;;;;;;;;;4995963;28;20113;-66
2022/10/14 00:15:29;;;;;;;36.10;19.63;;;;;;;;;;4995900;28;20121;-65
2022/10/14 00:17:55;;;;;;;34.22;19.23;;;;;;;;;;4995732;28;20033;-66
2022/10/14 00:20:21;;;;;;;32.80;19.77;;;;;;;;;;4995468;28;20050;-65
2022/10/14 00:22:46;;;;;;;39.08;20.80;;;;;;;;;;4995581;28;20054;-65
2022/10/14 00:25:12;;;;;;;29.13;18.63;;;;;;;;;;4995830;28;20031;-66
2022/10/14 00:27:37;;;;;;;39.15;20.15;;;;;;;;;;4995686;28;20031;-66
2022/10/14 00:30:03;;;;;;;28.92;18.50;;;;;;;;;;4995596;28;20029;-66
2022/10/14 00:32:29;;;;;;;31.63;18.70;;;;;;;;;;4995678;28;20030;-67
2022/10/14 00:34:55;;;;;;;32.60;19.52;;;;;;;;;;4995512;28;20034;-66
2022/10/14 00:37:20;;;;;;;30.15;18.20;;;;;;;;;;4995348;28;20037;-66
2022/10/14 00:39:46;;;;;;;34.60;19.17;;;;;;;;;;4995581;28;20371;-65
2022/10/14 00:42:14;;;;;;;34.95;19.52;;;;;;;;;;4995360;28;20073;-66
2022/10/14 00:44:42;;;;;;;29.35;19.45;;;;;;;;;;4995450;28;20027;-66
2022/10/14 00:47:08;;;;;;;33.03;19.45;;;;;;;;;;4995337;28;20431;-66
2022/10/14 00:49:38;;;;;;;33.15;18.25;;;;;;;;;;4995303;28;20113;-68
2022/10/14 00:52:10;;;;;;;34.58;20.38;;;;;;;;;;4994965;28;20030;-66
2022/10/14 00:54:44;;;;;;;31.55;19.50;;;;;;;;;;4995262;28;20073;-67
2022/10/14 00:57:10;;;;;;;34.08;20.77;;;;;;;;;;4995360;28;20117;-66
2022/10/14 00:59:37;;;;;;;32.00;19.90;;;;;;;;;;4995189;28;20054;-66
2022/10/14 01:02:03;;;;;;;34.42;19.75;;;;;;;;;;4995113;28;20030;-67
2022/10/14 01:04:28;;;;;;;32.42;19.42;;;;;;;;;;4995121;28;20038;-68
2022/10/14 01:06:54;;;;;;;28.63;18.13;;;;;;;;;;4994623;28;20081;-66
2022/10/14 01:09:35;;;;;;;32.42;18.85;;;;;;;;;;4994457;28;20369;-66
2022/10/14 01:12:25;;;;;;;31.15;17.90;;;;;;;;;;4994664;28;20034;-67
2022/10/14 01:15:03;;;;;;;31.90;17.83;;;;;;;;;;4994834;28;20047;-67
2022/10/14 01:17:42;;;;;;;35.00;18.88;;;;;;;;;;4994771;28;20048;-66
2022/10/14 01:20:29;;;;;;;30.63;17.73;;;;;;;;;;4994136;28;20038;-66
2022/10/14 01:23:27;;;;;;;28.42;18.52;;;;;;;;;;4994642;28;20069;-66
2022/10/14 01:26:01;;;;;;;34.78;19.35;;;;;;;;;;4991585;28;20061;-66
2022/10/14 01:28:42;;;;;;;29.23;18.45;;;;;;;;;;4994656;28;20325;-65
2022/10/14 01:31:12;;;;;;;31.40;19.70;;;;;;;;;;4994592;28;20181;-68
2022/10/14 01:33:42;;;;;;;35.63;19.90;;;;;;;;;;4992899;28;20029;-66
2022/10/14 01:36:08;;;;;;;34.75;20.90;;;;;;;;;;4994390;28;20033;-66
2022/10/14 01:38:52;;;;;;;37.63;21.73;;;;;;;;;;4994361;28;20026;-66
2022/10/14 01:41:26;;;;;;;36.17;21.55;;;;;;;;;;4994398;28;20058;-66
2022/10/14 01:43:54;;;;;;;35.53;20.77;;;;;;;;;;4994269;28;20484;-68
2022/10/14 01:46:22;;;;;;;31.15;19.63;;;;;;;;;;4994252;28;20334;-66
2022/10/14 01:48:53;;;;;;;34.65;19.75;;;;;;;;;;4994007;28;20030;-65
2022/10/14 01:51:28;;;;;;;29.85;18.75;;;;;;;;;;4994131;28;20030;-65
2022/10/14 01:53:59;;;;;;;32.80;19.15;;;;;;;;;;4994032;28;20053;-65
2022/10/14 01:56:28;;;;;;;31.75;19.83;;;;;;;;;;4994000;28;20030;-64
2022/10/14 01:58:53;;;;;;;30.85;18.33;;;;;;;;;;4993982;28;20080;-65
2022/10/14 02:01:19;;;;;;;30.80;18.90;;;;;;;;;;4993982;28;20424;-65
2022/10/14 02:03:46;;;;;;;31.60;18.90;;;;;;;;;;4993822;28;20023;-65
2022/10/14 02:06:22;;;;;;;30.00;17.55;;;;;;;;;;4993799;28;20037;-67
2022/10/14 02:09:11;;;;;;;30.88;18.63;;;;;;;;;;4994051;28;20475;-67
2022/10/14 02:11:47;;;;;;;27.05;17.77;;;;;;;;;;4993858;28;20026;-67
2022/10/14 02:14:31;;;;;;;37.05;18.90;;;;;;;;;;4993601;28;20033;-65
2022/10/14 02:17:00;;;;;;;31.83;19.38;;;;;;;;;;4993687;28;20068;-68
2022/10/14 02:19:34;;;;;;;29.00;19.45;;;;;;;;;;4993304;28;20101;-67
2022/10/14 02:22:11;;;;;;;35.60;19.70;;;;;;;;;;4993286;28;20030;-66
2022/10/14 02:24:43;;;;;;;36.03;20.13;;;;;;;;;;4993740;28;20472;-66
2022/10/14 02:27:14;;;;;;;31.73;18.95;;;;;;;;;;4993677;28;20026;-67
2022/10/14 02:29:43;;;;;;;34.85;19.20;;;;;;;;;;4992420;28;20371;-66
2022/10/14 02:32:13;;;;;;;31.40;18.80;;;;;;;;;;4993243;28;20037;-66
2022/10/14 02:34:40;;;;;;;32.20;18.27;;;;;;;;;;4993486;28;20096;-66
2022/10/14 02:37:06;;;;;;;28.33;17.60;;;;;;;;;;4993442;28;20030;-66
2022/10/14 02:39:36;;;;;;;31.63;19.13;;;;;;;;;;4993459;28;20037;-65
2022/10/14 02:42:02;;;;;;;29.70;18.48;;;;;;;;;;4993348;28;20030;-66
2022/10/14 02:44:28;;;;;;;30.67;18.35;;;;;;;;;;4993443;28;20387;-66
2022/10/14 02:46:55;;;;;;;29.15;18.67;;;;;;;;;;4993047;28;20076;-66
2022/10/14 02:49:20;;;;;;;31.98;18.40;;;;;;;;;;4993281;28;20034;-67
2022/10/14 02:51:47;;;;;;;29.10;18.63;;;;;;;;;;4993543;28;20029;-66
2022/10/14 02:54:12;;;;;;;33.45;19.80;;;;;;;;;;4993266;28;20028;-66
2022/10/14 02:56:38;;;;;;;30.40;19.67;;;;;;;;;;4993164;28;20109;-67
2022/10/14 02:59:04;;;;;;;31.25;19.08;;;;;;;;;;4993169;28;20025;-66
2022/10/14 03:01:30;;;;;;;34.33;19.38;;;;;;;;;;4992884;28;20035;-66
2022/10/14 03:03:55;;;;;;;36.33;20.00;;;;;;;;;;4993144;28;20041;-66
2022/10/14 03:06:20;;;;;;;39.22;19.95;;;;;;;;;;4993067;28;20097;-66
2022/10/14 03:08:46;;;;;;;39.25;25.55;;;;;;;;;;4992982;28;20093;-66
2022/10/14 03:11:11;;;;;;;43.50;26.50;;;;;;;;;;4993126;28;20022;-66
2022/10/14 03:13:37;;;;;;;35.38;23.83;;;;;;;;;;4993056;28;20515;-66
2022/10/14 03:16:02;;;;;;;39.40;23.73;;;;;;;;;;4992867;28;20027;-65
2022/10/14 03:18:28;;;;;;;40.65;23.85;;;;;;;;;;4992935;28;20026;-66
2022/10/14 03:20:53;;;;;;;41.83;22.90;;;;;;;;;;4992809;28;20073;-66
2022/10/14 03:23:19;;;;;;;38.15;24.52;;;;;;;;;;4993009;28;20067;-66
2022/10/14 03:25:44;;;;;;;33.47;20.50;;;;;;;;;;4993026;28;20030;-65
2022/10/14 03:28:11;;;;;;;31.52;20.17;;;;;;;;;;4992894;28;20546;-66
2022/10/14 03:30:36;;;;;;;34.13;19.63;;;;;;;;;;4992723;28;20030;-67
2022/10/14 03:33:02;;;;;;;32.97;20.00;;;;;;;;;;4993280;28;20105;-66
2022/10/14 03:35:27;;;;;;;34.33;19.48;;;;;;;;;;4996643;28;20026;-66
2022/10/14 03:37:53;;;;;;;31.08;18.65;;;;;;;;;;4996655;28;20022;-65
2022/10/14 03:40:20;;;;;;;32.20;18.73;;;;;;;;;;4996541;28;20105;-66
2022/10/14 03:42:45;;;;;;;34.40;19.42;;;;;;;;;;4996402;28;20030;-66
2022/10/14 03:45:11;;;;;;;35.80;20.08;;;;;;;;;;4996138;28;20476;-66
2022/10/14 03:47:37;;;;;;;36.58;20.33;;;;;;;;;;4995124;28;20030;-65
2022/10/14 03:50:03;;;;;;;32.30;20.08;;;;;;;;;;4996288;28;20361;-65
2022/10/14 03:52:30;;;;;;;35.22;19.73;;;;;;;;;;4996256;28;20023;-66
2022/10/14 03:54:55;;;;;;;40.67;23.48;;;;;;;;;;4996296;28;20486;-67
2022/10/14 03:57:21;;;;;;;49.28;25.50;;;;;;;;;;4996243;28;20118;-67
2022/10/14 03:59:46;;;;;;;39.30;21.58;;;;;;;;;;4996025;28;20109;-67
2022/10/14 04:02:12;;;;;;;44.70;23.50;;;;;;;;;;4996135;28;20054;-66
2022/10/14 04:04:37;;;;;;;44.20;24.48;;;;;;;;;;4996053;28;20392;-66
2022/10/14 04:07:02;;;;;;;36.50;21.60;;;;;;;;;;4996092;28;20022;-66
2022/10/14 04:09:28;;;;;;;32.83;20.88;;;;;;;;;;4995905;28;20022;-66
2022/10/14 04:11:56;;;;;;;42.08;21.48;;;;;;;;;;4995970;28;20028;-66
2022/10/14 04:14:22;;;;;;;38.70;23.23;;;;;;;;;;4995681;28;20383;-65
2022/10/14 04:16:48;;;;;;;35.00;21.58;;;;;;;;;;4995740;28;20036;-66
2022/10/14 04:19:13;;;;;;;35.25;21.48;;;;;;;;;;4995621;28;20046;-66
2022/10/14 04:21:39;;;;;;;36.20;21.30;;;;;;;;;;4995635;28;20081;-66
2022/10/14 04:24:04;;;;;;;42.38;21.83;;;;;;;;;;4995822;28;20029;-66
2022/10/14 04:26:30;;;;;;;35.35;20.85;;;;;;;;;;4995785;28;20022;-67
2022/10/14 04:28:55;;;;;;;33.60;20.77;;;;;;;;;;4995584;28;20026;-65
2022/10/14 04:31:21;;;;;;;33.58;20.25;;;;;;;;;;4995631;28;20036;-66
2022/10/14 04:33:47;;;;;;;33.78;19.52;;;;;;;;;;4995537;28;20030;-66
2022/10/14 04:36:12;;;;;;;33.13;20.58;;;;;;;;;;4995535;28;20036;-66
2022/10/14 04:38:38;;;;;;;34.17;20.15;;;;;;;;;;4995527;28;20029;-67
2022/10/14 04:41:04;;;;;;;31.70;19.80;;;;;;;;;;4995394;28;20456;-66
2022/10/14 04:43:29;;;;;;;31.88;19.50;;;;;;;;;;4995200;28;20022;-66
2022/10/14 04:45:55;;;;;;;28.63;19.77;;;;;;;;;;4995217;28;20045;-66
2022/10/14 04:48:20;;;;;;;32.75;20.10;;;;;;;;;;4995410;28;20106;-66
2022/10/14 04:50:49;;;;;;;30.42;19.17;;;;;;;;;;4995183;28;20022;-67
2022/10/14 04:53:15;;;;;;;30.65;19.95;;;;;;;;;;4995273;28;20030;-66
2022/10/14 04:55:40;;;;;;;34.47;20.35;;;;;;;;;;4995101;28;20451;-66
2022/10/14 04:58:06;;;;;;;33.63;19.58;;;;;;;;;;4994717;28;20037;-66
2022/10/14 05:00:31;;;;;;;36.17;21.50;;;;;;;;;;4994956;28;20107;-67
2022/10/14 05:02:56;;;;;;;33.38;20.73;;;;;;;;;;4995025;28;20117;-66
2022/10/14 05:05:22;;;;;;;34.50;21.17;;;;;;;;;;4994859;28;20048;-66
2022/10/14 05:07:47;;;;;;;38.92;24.08;;;;;;;;;;4994776;28;20022;-70
2022/10/14 05:10:13;;;;;;;35.65;19.98;;;;;;;;;;4994747;28;20026;-65
2022/10/14 05:12:38;;;;;;;37.00;21.00;;;;;;;;;;4994686;28;20022;-66
2022/10/14 05:15:05;;;;;;;34.50;21.63;;;;;;;;;;4994688;28;20050;-67
2022/10/14 05:17:31;;;;;;;39.70;20.90;;;;;;;;;;4994533;28;20038;-65
2022/10/14 05:19:57;;;;;;;36.80;21.08;;;;;;;;;;4994302;28;20039;-66
2022/10/14 05:22:23;;;;;;;37.65;21.50;;;;;;;;;;4994731;28;20068;-66
2022/10/14 05:24:48;;;;;;;35.08;21.27;;;;;;;;;;4994497;28;20037;-66
2022/10/14 05:27:14;;;;;;;37.50;21.10;;;;;;;;;;4994319;28;20026;-66
2022/10/14 05:29:39;;;;;;;39.47;21.58;;;;;;;;;;4994620;28;20152;-66
2022/10/14 05:32:05;;;;;;;37.05;21.02;;;;;;;;;;4994427;28;20113;-66
2022/10/14 05:34:30;;;;;;;38.03;22.58;;;;;;;;;;4994174;28;20061;-66
2022/10/14 05:36:56;;;;;;;34.60;21.00;;;;;;;;;;4994326;28;20026;-66
2022/10/14 05:39:21;;;;;;;46.88;21.90;;;;;;;;;;4994302;28;20089;-66
2022/10/14 05:41:47;;;;;;;40.42;21.17;;;;;;;;;;4994049;28;20101;-65
2022/10/14 05:44:12;;;;;;;36.47;21.83;;;;;;;;;;4994136;28;20038;-66
2022/10/14 05:46:38;;;;;;;39.55;22.13;;;;;;;;;;4994130;28;20097;-66
2022/10/14 05:49:04;;;;;;;43.92;22.15;;;;;;;;;;4994228;28;20057;-66
2022/10/14 05:51:33;;;;;;;39.20;21.58;;;;;;;;;;4994131;28;20114;-66
2022/10/14 05:53:59;;;;;;;41.53;21.10;;;;;;;;;;4993868;28;20109;-66
2022/10/14 05:56:24;;;;;;;37.08;24.95;;;;;;;;;;4993443;28;20117;-66
2022/10/14 05:58:50;;;;;;;36.58;20.25;;;;;;;;;;4994063;28;20461;-65
2022/10/14 06:01:15;;;;;;;39.78;21.90;;;;;;;;;;4993980;28;20030;-66
2022/10/14 06:03:41;;;;;;;40.42;21.65;;;;;;;;;;4994018;28;20028;-66
2022/10/14 06:06:11;;;;;;;42.65;21.10;;;;;;;;;;4993816;28;20041;-66
2022/10/14 06:08:37;;;;;;;33.03;20.50;;;;;;;;;;4993832;28;20499;-66
2022/10/14 06:11:03;;;;;;;39.95;23.10;;;;;;;;;;4993705;28;20057;-66
2022/10/14 06:13:29;;;;;;;36.63;20.83;;;;;;;;;;4993734;28;20030;-66
2022/10/14 06:15:54;;;;;;;37.70;21.27;;;;;;;;;;4993565;28;20038;-66
2022/10/14 06:18:20;;;;;;;33.75;21.23;;;;;;;;;;4993732;28;20124;-66
2022/10/14 06:20:54;;;;;;;38.65;23.90;;;;;;;;;;4993227;28;20049;-66
2022/10/14 06:23:20;;;;;;;37.42;22.35;;;;;;;;;;4993697;28;20018;-66
2022/10/14 06:25:45;;;;;;;43.88;22.15;;;;;;;;;;4993393;28;20388;-66
2022/10/14 06:28:11;;;;;;;32.47;19.92;;;;;;;;;;4993520;28;20034;-70
2022/10/14 06:30:36;;;;;;;34.88;20.05;;;;;;;;;;4993479;28;20027;-65
2022/10/14 06:33:02;;;;;;;30.05;19.35;;;;;;;;;;4993504;28;20025;-65
2022/10/14 06:35:27;;;;;;;33.25;20.50;;;;;;;;;;4993486;28;20467;-66
2022/10/14 06:37:53;;;;;;;31.70;19.98;;;;;;;;;;4993526;28;20053;-65
2022/10/14 06:40:19;;;;;;;31.85;19.27;;;;;;;;;;4993140;28;20432;-66
2022/10/14 06:42:44;;;;;;;33.22;19.75;;;;;;;;;;4993464;28;20027;-66
2022/10/14 06:45:10;;;;;;;34.67;20.75;;;;;;;;;;4993343;28;20022;-66
2022/10/14 06:47:35;;;;;;;35.08;20.02;;;;;;;;;;4993321;28;20076;-66
2022/10/14 06:50:01;;;;;;;28.40;19.23;;;;;;;;;;4993257;28;20034;-66
2022/10/14 06:52:26;;;;;;;31.75;18.63;;;;;;;;;;4993348;28;20022;-67
2022/10/14 06:54:52;;;;;;;37.67;21.70;;;;;;;;;;4992953;28;20023;-66
2022/10/14 06:57:17;;;;;;;42.90;22.60;;;;;;;;;;4993161;28;20041;-66
2022/10/14 06:59:43;;;;;;;37.30;20.90;;;;;;;;;;4993202;28;20033;-66
2022/10/14 07:02:09;;;;;;;32.65;18.48;;;;;;;;;;4993223;28;20041;-66
2022/10/14 07:04:35;;;;;;;28.58;20.17;;;;;;;;;;4993193;28;20071;-65
2022/10/14 07:07:01;;;;;;;28.98;20.52;;;;;;;;;;4993153;28;20395;-66
2022/10/14 07:09:27;;;;;;;34.22;22.98;;;;;;;;;;4995862;28;20431;-66
2022/10/14 07:11:53;;;;;;;37.33;25.58;;;;;;;;;;4997173;28;20464;-65
2022/10/14 07:14:19;;;;;;;42.78;23.35;;;;;;;;;;4996990;28;20037;-66
2022/10/14 07:16:44;;;;;;;35.95;24.65;;;;;;;;;;4997016;28;20022;-67
2022/10/14 07:19:10;;;;;;;36.35;23.83;;;;;;;;;;4997035;28;20503;-68
2022/10/14 07:21:35;;;;;;;34.75;22.05;;;;;;;;;;4996475;28;20026;-65
2022/10/14 07:24:00;;;;;;;35.10;21.08;;;;;;;;;;4995669;28;20395;-65
2022/10/14 07:26:28;;;;;;;36.30;21.40;;;;;;;;;;4996765;28;20058;-67
2022/10/14 07:28:54;;;;;;;27.65;19.38;;;;;;;;;;4996920;28;20037;-66
2022/10/14 07:31:19;;;;;;;28.98;18.40;;;;;;;;;;4996705;28;20027;-68
2022/10/14 07:33:45;;;;;;;25.52;16.00;;;;;;;;;;4996608;28;20054;-65
2022/10/14 07:36:12;;;;;;;28.85;17.63;;;;;;;;;;4996373;28;20037;-66
2022/10/14 07:38:38;;;;;;;28.42;17.77;;;;;;;;;;4996676;28;20101;-66
2022/10/14 07:41:07;;;;;;;24.30;17.23;;;;;;;;;;4996641;28;20173;-66
2022/10/14 07:43:33;;;;;;;34.47;17.27;;;;;;;;;;4996463;28;20361;-66
2022/10/14 07:46:01;;;;;;;26.92;17.23;;;;;;;;;;4996141;28;20034;-66
2022/10/14 07:48:29;;;;;;;32.17;17.63;;;;;;;;;;4996515;28;20022;-66
2022/10/14 07:50:55;;;;;;;35.90;18.20;;;;;;;;;;4996215;28;20022;-65
2022/10/14 07:53:21;;;;;;;32.88;19.42;;;;;;;;;;4996571;28;20494;-66
2022/10/14 07:55:51;;;;;;;30.77;18.08;;;;;;;;;;4996287;28;20064;-65
2022/10/14 07:58:21;;;;;;;29.17;18.13;;;;;;;;;;4996253;28;20096;-66
2022/10/14 08:00:48;;;;;;;28.17;16.95;;;;;;;;;;4996257;28;20030;-65
2022/10/14 08:03:13;;;;;;;24.63;16.38;;;;;;;;;;4996102;28;20031;-65
2022/10/14 08:05:39;;;;;;;23.13;14.85;;;;;;;;;;4995816;28;20121;-65
2022/10/14 08:08:06;;;;;;;25.10;15.30;;;;;;;;;;4995952;28;20546;-65
2022/10/14 08:10:31;;;;;;;21.75;14.40;;;;;;;;;;4995999;28;20038;-65
2022/10/14 08:12:57;;;;;;;19.73;13.93;;;;;;;;;;4995969;28;20026;-67
2022/10/14 08:15:24;;;;;;;18.52;13.30;;;;;;;;;;4995834;28;20109;-65
2022/10/14 08:17:50;;;;;;;20.88;13.38;;;;;;;;;;4995905;28;20075;-68
2022/10/14 08:20:15;;;;;;;19.10;13.70;;;;;;;;;;4994789;28;20122;-66
2022/10/14 08:22:41;;;;;;;21.35;14.32;;;;;;;;;;4995756;28;20490;-65
2022/10/14 08:25:06;;;;;;;21.05;13.95;;;;;;;;;;4995783;28;20580;-65
2022/10/14 08:27:32;;;;;;;21.02;13.50;;;;;;;;;;4995618;28;20380;-66
2022/10/14 08:29:57;;;;;;;23.95;14.43;;;;;;;;;;4995686;28;20022;-65
2022/10/14 08:32:23;;;;;;;18.40;13.95;;;;;;;;;;4995707;28;20026;-65
2022/10/14 08:34:48;;;;;;;22.02;14.15;;;;;;;;;;4995320;28;20065;-65
2022/10/14 08:37:14;;;;;;;18.35;13.77;;;;;;;;;;4995598;28;20049;-66
2022/10/14 08:39:39;;;;;;;24.73;13.65;;;;;;;;;;4994346;28;20091;-65
2022/10/14 08:42:16;;;;;;;19.02;14.23;;;;;;;;;;4995554;28;20475;-66
2022/10/14 08:44:56;;;;;;;22.35;14.52;;;;;;;;;;4995499;28;20026;-66
2022/10/14 08:47:28;;;;;;;18.00;13.68;;;;;;;;;;4995541;28;20449;-66
2022/10/14 08:50:06;;;;;;;20.00;14.13;;;;;;;;;;4995075;28;20034;-69
2022/10/14 08:52:47;;;;;;;22.27;13.65;;;;;;;;;;4995337;28;20061;-65
2022/10/14 08:55:27;;;;;;;28.17;13.60;;;;;;;;;;4995121;28;20503;-66
2022/10/14 08:57:58;;;;;;;20.15;14.15;;;;;;;;;;4995210;28;20034;-66
2022/10/14 09:00:24;;;;;;;21.25;13.18;;;;;;;;;;4995112;28;20023;-66
2022/10/14 09:02:51;;;;;;;19.13;12.70;;;;;;;;;;4995115;28;20052;-66
2022/10/14 09:05:20;;;;;;;21.23;12.55;;;;;;;;;;4994789;28;20490;-65
2022/10/14 09:07:48;;;;;;;21.02;12.05;;;;;;;;;;4994937;28;20023;-65
2022/10/14 09:10:24;;;;;;;22.00;11.45;;;;;;;;;;4994842;28;20038;-65
2022/10/14 09:12:52;;;;;;;23.83;11.07;;;;;;;;;;4994905;28;20030;-71
2022/10/14 09:15:24;;;;;;;17.05;11.13;;;;;;;;;;4994775;28;20514;-68
2022/10/14 09:18:14;;;;;;;18.25;10.98;;;;;;;;;;4994788;28;20081;-65
2022/10/14 09:20:41;;;;;;;21.10;11.55;;;;;;;;;;4994394;28;20117;-65
2022/10/14 09:23:09;;;;;;;23.45;12.50;;;;;;;;;;4994823;28;20030;-65
2022/10/14 09:25:37;;;;;;;17.52;10.98;;;;;;;;;;4994504;28;20026;-65
2022/10/14 09:28:02;;;;;;;16.02;10.30;;;;;;;;;;4994530;28;20463;-66
2022/10/14 09:30:34;;;;;;;20.17;11.57;;;;;;;;;;4994131;28;20029;-65
2022/10/14 09:33:00;;;;;;;21.95;11.07;;;;;;;;;;4994110;28;20503;-65
2022/10/14 09:35:31;;;;;;;22.20;10.65;;;;;;;;;;4994287;28;20030;-66
2022/10/14 09:37:56;;;;;;;15.85;10.00;;;;;;;;;;4994348;28;20022;-65
2022/10/14 09:40:35;;;;;;;17.08;9.63;;;;;;;;;;4993037;28;20369;-65
2022/10/14 09:43:13;;;;;;;23.70;9.95;;;;;;;;;;4994280;28;20027;-65
2022/10/14 09:45:54;;;;;;;16.75;9.55;;;;;;;;;;4994471;28;20026;-65
2022/10/14 09:48:36;;;;;;;15.18;9.20;;;;;;;;;;4992873;28;20117;-65
2022/10/14 09:51:10;;;;;;;14.38;9.15;;;;;;;;;;4993994;28;20117;-65
2022/10/14 09:53:56;;;;;;;17.70;9.30;;;;;;;;;;4994278;28;20034;-66
2022/10/14 09:56:33;;;;;;;18.48;10.32;;;;;;;;;;4994068;28;20030;-65
2022/10/14 09:59:00;;;;;;;24.20;13.20;;;;;;;;;;4994056;28;20027;-65
2022/10/14 10:01:47;;;;;;;26.15;12.32;;;;;;;;;;4993765;28;20476;-67
2022/10/14 10:04:32;;;;;;;19.75;11.00;;;;;;;;;;4993873;28;20038;-66
2022/10/14 10:07:00;;;;;;;20.73;12.63;;;;;;;;;;4993822;28;20022;-65
2022/10/14 10:09:26;;;;;;;18.52;10.98;;;;;;;;;;4993576;28;20037;-66
2022/10/14 10:11:52;;;;;;;21.27;12.50;;;;;;;;;;4993739;28;20431;-66
2022/10/14 10:14:25;;;;;;;19.20;11.35;;;;;;;;;;4993697;28;20027;-65
2022/10/14 10:17:12;;;;;;;20.08;11.07;;;;;;;;;;4993345;28;20082;-66
2022/10/14 10:19:43;;;;;;;19.77;9.98;;;;;;;;;;4993133;28;20046;-65
2022/10/14 10:22:18;;;;;;;19.10;10.23;;;;;;;;;;4993581;28;20030;-66
2022/10/14 10:24:48;;;;;;;17.92;10.80;;;;;;;;;;4993624;28;20022;-66
2022/10/14 10:27:28;;;;;;;22.83;10.75;;;;;;;;;;4993612;28;20490;-66
2022/10/14 10:29:57;;;;;;;;;;;;;;;;;;4994014;28;20041;-65
2022/10/14 10:32:44;;;;;;;20.30;10.25;;;;;;;;;;4993338;28;19945;-66
2022/10/14 10:35:25;;;;;;;23.48;10.85;;;;;;;;;;4993464;28;20081;-66
2022/10/14 10:38:13;;;;;;;20.40;11.02;;;;;;;;;;4993489;28;20034;-68
2022/10/14 10:40:40;;;;;;;17.90;10.25;;;;;;;;;;4993553;28;20041;-66
2022/10/14 10:43:31;;;;;;;16.30;9.88;;;;;;;;;;4993153;28;20108;-64
2022/10/14 10:46:16;;;;;;;17.13;9.77;;;;;;;;;;4971416;28;20043;-64
2022/10/14 10:48:45;;;;;;;14.57;9.40;;;;;;;;;;4971764;28;20105;-65
2022/10/14 10:51:28;;;;;;;16.48;9.77;;;;;;;;;;4971656;28;20492;-64
2022/10/14 10:54:15;;;;;;;16.80;10.35;;;;;;;;;;4971755;28;20058;-65
2022/10/14 10:56:49;;;;;;;15.77;9.60;;;;;;;;;;4971739;28;20039;-66
2022/10/14 10:59:34;;;;;;;14.70;10.50;;;;;;;;;;4971650;28;20023;-65
2022/10/14 11:02:02;;;;;;;14.70;9.82;;;;;;;;;;4971682;28;20041;-65
2022/10/14 11:04:46;;;;;;;15.93;9.13;;;;;;;;;;4971654;28;20043;-67
2022/10/14 11:13:44;;;;;;;18.85;8.80;;;;;;;;;;4895406;29;20044;-66
2022/10/14 11:16:38;;;;;;;18.02;9.48;;;;;;;;;;4890012;29;20556;-66
2022/10/14 11:19:19;;;;;;;16.60;9.18;;;;;;;;;;4895192;29;20084;-65
2022/10/14 11:21:55;;;;;;;13.23;8.27;;;;;;;;;;4894887;29;20071;-66
2022/10/14 11:24:38;;;;;;;20.63;9.48;;;;;;;;;;4895351;29;20066;-66
2022/10/14 11:27:51;;;;;;;17.27;8.48;;;;;;;;;;4895164;29;20040;-67
2022/10/14 11:30:24;;;;;;;11.60;7.70;;;;;;;;;;4852953;29;20187;-66
2022/10/14 11:33:43;;;;;;;21.23;8.65;;;;;;;;;;4858030;29;20038;-65
2022/10/14 11:36:20;;;;;;;15.13;8.73;;;;;;;;;;4821239;29;20034;-66
2022/10/14 11:38:51;;;;;;;18.35;9.65;;;;;;;;;;4821212;29;20030;-66
2022/10/14 11:41:44;;;;;;;15.88;8.70;;;;;;;;;;4821230;29;20043;-70
2022/10/14 11:44:27;;;;;;;16.02;8.85;;;;;;;;;;4821055;29;20132;-67
2022/10/14 11:46:58;;;;;;;15.10;9.43;;;;;;;;;;4853556;29;20521;-71
2022/10/14 11:49:41;;;;;;;12.98;7.53;;;;;;;;;;4914026;29;20036;-65
2022/10/14 11:52:13;;;;;;;17.08;8.00;;;;;;;;;;4914047;29;20155;-66
2022/10/14 11:54:44;;;;;;;16.33;8.00;;;;;;;;;;4914999;29;20040;-67
2022/10/14 11:57:37;;;;;;;17.08;8.13;;;;;;;;;;4917044;29;20040;-66
2022/10/14 12:03:02;;;;;;;13.18;7.50;;;;;;;;;;4917454;29;20039;-66
2022/10/14 12:05:35;;;;;;;17.83;7.55;;;;;;;;;;4917030;29;20048;-66
2022/10/14 12:08:03;;;;;;;16.15;7.53;;;;;;;;;;4953968;29;20101;-65
2022/10/14 12:10:37;;;;;;;14.85;8.35;;;;;;;;;;4986777;28;20043;-66
2022/10/14 12:13:09;;;;;;;12.40;7.20;;;;;;;;;;4995762;28;20388;-68
2022/10/14 12:15:39;;;;;;;12.40;7.18;;;;;;;;;;4995823;28;20026;-66
2022/10/14 12:18:05;;;;;;;13.57;8.77;;;;;;;;;;4995861;28;20109;-66
2022/10/14 12:20:37;;;;;;;17.65;7.75;;;;;;;;;;4995512;28;20074;-66
2022/10/14 12:23:07;;;;;;;14.65;7.38;;;;;;;;;;4995709;28;20130;-66
2022/10/14 12:26:10;;;;;;;14.40;7.68;;;;;;;;;;4995692;28;20479;-67
2022/10/14 12:28:36;;;;;;;11.80;7.65;;;;;;;;;;4994430;28;20411;-67
2022/10/14 12:31:20;;;;;;;16.00;8.30;;;;;;;;;;4995657;28;20384;-69
2022/10/14 12:34:24;;;;;;;17.50;8.90;;;;;;;;;;4995628;28;20022;-69
2022/10/14 12:36:49;;;;;;;13.88;7.75;;;;;;;;;;4992146;28;20512;-67
2022/10/14 12:39:17;;;;;;;17.65;9.05;;;;;;;;;;4995575;28;20105;-67
2022/10/14 12:42:09;;;;;;;15.20;9.00;;;;;;;;;;4995291;28;20022;-66
2022/10/14 12:44:50;;;;;;;17.15;8.68;;;;;;;;;;4995510;28;20030;-67
2022/10/14 12:47:30;;;;;;;12.57;8.35;;;;;;;;;;4995309;28;20133;-68
2022/10/14 12:49:57;;;;;;;;;;;;;;;;;;4995603;28;20468;-69
2022/10/14 12:52:27;;;;;;;14.82;8.43;;;;;;;;;;4995280;28;20382;-67
2022/10/14 12:54:53;;;;;;;17.10;8.13;;;;;;;;;;4995005;28;20125;-67
2022/10/14 12:57:28;;;;;;;18.92;9.15;;;;;;;;;;4995006;28;20031;-67
2022/10/14 12:59:56;;;;;;;18.55;8.55;;;;;;;;;;4993912;28;20476;-66
2022/10/14 13:02:31;;;;;;;16.33;8.68;;;;;;;;;;4995149;28;20142;-67
2022/10/14 13:04:59;;;;;;;14.68;8.43;;;;;;;;;;4995130;28;20140;-67
2022/10/14 13:07:25;;;;;;;15.30;7.68;;;;;;;;;;4995144;28;20235;-67
2022/10/14 13:10:25;;;;;;;11.98;7.00;;;;;;;;;;4994575;28;20138;-66
2022/10/14 13:12:50;;;;;;;15.00;7.97;;;;;;;;;;4994878;28;20038;-67
2022/10/14 13:15:36;;;;;;;19.90;8.10;;;;;;;;;;4994557;28;20039;-66
2022/10/14 13:18:30;;;;;;;13.27;7.72;;;;;;;;;;4994768;28;20026;-67
2022/10/14 13:20:56;;;;;;;16.65;7.50;;;;;;;;;;4994711;28;20051;-67
2022/10/14 13:23:36;;;;;;;17.80;8.07;;;;;;;;;;4994724;28;20121;-67
2022/10/14 13:26:16;;;;;;;15.48;7.72;;;;;;;;;;4994372;28;20030;-68
2022/10/14 13:28:54;;;;;;;12.45;6.63;;;;;;;;;;4994587;28;20496;-66
2022/10/14 13:31:32;;;;;;;11.20;6.53;;;;;;;;;;4994596;28;20057;-66
2022/10/14 13:34:12;;;;;;;12.40;7.35;;;;;;;;;;4994526;28;20027;-67
2022/10/14 13:36:56;;;;;;;11.25;7.03;;;;;;;;;;4994539;28;20030;-68
2022/10/14 13:39:22;;;;;;;12.70;7.45;;;;;;;;;;4994302;28;20027;-66
2022/10/14 13:41:49;;;;;;;14.98;7.13;;;;;;;;;;4994507;28;20471;-68
2022/10/14 13:44:20;;;;;;;13.90;7.32;;;;;;;;;;4994430;28;20033;-67
2022/10/14 13:46:47;;;;;;;17.52;7.40;;;;;;;;;;4994257;28;20361;-70
2022/10/14 13:49:19;;;;;;;15.27;6.90;;;;;;;;;;4994284;28;20030;-67
2022/10/14 13:52:06;;;;;;;11.88;6.00;;;;;;;;;;4994369;28;20077;-66
2022/10/14 13:54:32;;;;;;;14.50;6.18;;;;;;;;;;4994001;28;20038;-67
2022/10/14 13:57:16;;;;;;;14.82;6.80;;;;;;;;;;4994256;28;20392;-67
2022/10/14 13:59:44;;;;;;;13.80;6.13;;;;;;;;;;4994365;28;20022;-70
2022/10/14 14:02:17;;;;;;;13.32;6.85;;;;;;;;;;4994132;28;20031;-67
2022/10/14 14:04:48;;;;;;;12.77;6.68;;;;;;;;;;4994100;28;20467;-67
2022/10/14 14:07:18;;;;;;;16.60;6.35;;;;;;;;;;4994087;28;20176;-71
2022/10/14 14:09:51;;;;;;;14.82;6.78;;;;;;;;;;4993759;28;20022;-67
2022/10/14 14:12:19;;;;;;;13.20;6.53;;;;;;;;;;4993972;28;20024;-67
2022/10/14 14:14:46;;;;;;;16.52;6.05;;;;;;;;;;4993868;28;20060;-73
2022/10/14 14:17:16;;;;;;;15.30;7.43;;;;;;;;;;4993506;28;20030;-68
2022/10/14 14:19:45;;;;;;;18.35;7.15;;;;;;;;;;4993540;28;20053;-66
2022/10/14 14:22:19;;;;;;;10.57;6.20;;;;;;;;;;4993581;28;20030;-70
2022/10/14 14:24:47;;;;;;;16.27;5.90;;;;;;;;;;4993820;28;20026;-66
2022/10/14 14:27:18;;;;;;;12.48;5.80;;;;;;;;;;4993794;28;20093;-67
2022/10/14 14:29:47;;;;;;;12.48;6.32;;;;;;;;;;4993735;28;20023;-67
2022/10/14 14:32:35;;;;;;;13.68;6.40;;;;;;;;;;4993737;28;20022;-68
2022/10/14 14:35:03;;;;;;;12.13;5.75;;;;;;;;;;4993553;28;20046;-67
2022/10/14 14:37:30;;;;;;;8.57;5.82;;;;;;;;;;4993210;28;20034;-66
2022/10/14 14:40:01;;;;;;;11.85;6.97;;;;;;;;;;4993651;28;20038;-72
2022/10/14 14:42:38;;;;;;;;;;;;;;;;;;4994171;28;20022;-67
2022/10/14 14:45:11;;;;;;;10.77;6.07;;;;;;;;;;4993635;28;19913;-65
2022/10/14 14:47:37;;;;;;;12.70;6.25;;;;;;;;;;4993093;28;20062;-66
2022/10/14 14:50:04;;;;;;;13.73;6.80;;;;;;;;;;4993318;28;20054;-67